Accueil
METAR-TAF:

METAR-TAF

Aéroports :

Portorož, Slovénie

latitude: 45-31N, longitude: 013-34E, altitude: 95 m

Observation

Le bulletin a été fait il y a 36 minutes, à 23:00 UTC
Vent 7 kt de sud-est, variant entre est/sud-est et sud
Température 18°C
Humidité 83%
Pression 1016 hPa
Visibilité 10 km ou plus

METAR: LJPZ 092300Z AUTO 13007KT 110V170 9999 NCD 18/15 Q1016

Heure: 01:36 (23:36 UTC)

Prévision

Le bulletin a été fait il y a 36 minutes, à 23:00 UTC
Prévision valable du 10 à 00 UTC au 10 à 09 UTC
Vent 7 kt de est/sud-est
Visibilité 10 km ou plus
pas de nuages en-dessous de 1500 mètres et pas de cumulonimbus.

TAF: LJPZ 092300Z 1000/1009 12007KT CAVOK

Observations et prévisions météorologiques de plus de 4000 aéroports (messages METAR et TAF).

Les stations disponibles sont représentées par des disques jaunes et rouges sur la carte.

Passer la souris dessus pour voir le nom de la station.

Cliquer dessus pour voir les observations et prévisions météorologiques.

Pour changer de carte: cliquez sur les boutons verts avec une croix noire pour zoomer, sur le bouton vert avec un tiret pour effectuer un zoom arrière, ou sur les flèches vertes pour les cartes adjacentes.


METAR-TAF: